Aktualne dane pomiarowe

Uwaga, wersja testowa! Automatyczne pobieranie danych za pomocą narzędzi lub skryptów to umożliwiających jest zabronione.

Dane meteo z obszaru Polski uzyskane na podstawie depesz SYNOP pobieranych co godzinę z NWS. Najedź myszką na symbol przedstawiony w tabeli, aby uzyskać informacje co do jego znaczenia. Prosimy pamiętać, że to testowa wersja strony, która jeszcze nie jest ukończona. Stworzono również jest krótki FAQ dotyczący korzystania z tej podstrony Anomalie temperatury w chwili obecnej odniesione są do okresu referencyjnego 1951-2016. Okres ten będzie później zmieniony na 1981-2010. Kliknij ikonę aby pobrać plik CSV. Kliknij ikonę aby wygenerować mapę synoptyczną dla danego terminu.

Wybierz Datę:    

        

Suwałki (12195)

Dane terminowe dla wybranej stacji. Kliknij datę, aby otrzymać dane z tego terminu dla wszystkich stacji.

TemperaturaZachmurzenieWiatrCiśnienieOpadyPogoda
 Data t td wb tx tn tg rh  Nt Nl Cl Cm Ch ws wd g1 g2 wx mslp ppp ch 24h 12h t ww ww w1 w2  
2019-06-19 23:00:00 18.0 12.9 14.7--- 7235.0wx-wx1wx---1013.1 991.2 -0.4---------
2019-06-19 22:00:00 18.5 12.9 14.9--- 7030.0wx-wx1wx---1013.1 991.3 -0.2---------
2019-06-19 21:00:00 19.4 13.1 15.3--- 6712.0wx-wx1wx--11013.2 991.4 0.1---------
2019-06-19 20:00:00 19.1 11.6 14.4--- 6230.0wx-wx1wx--11013.4 991.6 -0.1---------
2019-06-19 19:00:00 21.0 12.4 15.6--- 5830.0wx-wxwx1wx--11013.2 991.5 -0.5---------
2019-06-19 18:00:00 23.8 13.6 17.4 28.0 19.9- 5318.0wxwxwxwx1wx--11012.8 991.3 -1.0- 0.012------
2019-06-19 17:00:00 25.6 12.8 17.7--- 4528.0wxwxwxwx1wx--11013.0 991.7 -0.9---------
2019-06-19 16:00:00 26.6 12.3 17.9--- 4135.0wxwxwx2wx--21013.3 992.0 -1.2---------
2019-06-19 15:00:00 26.7 9.1 16.5--- 3335.0wxwxwx3wx---1013.6 992.3 -1.6---------
2019-06-19 14:00:00 27.5 10.2 17.3--- 3430.0wxwxwx2wx--21013.8 992.6 -1.8---------
2019-06-19 13:00:00 26.2 11.5 17.4--- 4035.0wxwxwx3wx--31014.5 993.2 -1.5---------
2019-06-19 12:00:00 26.1 12.2 17.6--- 4230.0wxwxwx3wx--31015.2 993.9 -1.2- 0.06------
2019-06-19 11:00:00 26.0 11.7 17.4--- 4130.0wxwxwx2wx--21015.8 994.4 -1.1---------
2019-06-19 10:00:00 26.0 12.1 17.6--- 4235.0wxwxwx3wx--31016.1 994.7 -1.0---------
2019-06-19 09:00:00 25.3 11.8 17.1--- 4335.0wxwxwxwx3wx--31016.5 995.1 -0.9---------
2019-06-19 08:00:00 25.1 13.0 17.6--- 4729.0wxwxwxwx3wx---1016.9 995.5 -0.6---------
2019-06-19 07:00:00 22.9 14.5 17.5--- 5930.0wx-wx2wx--21017.3 995.7 -0.5---------
2019-06-19 06:00:00 19.9 13.4 15.7 22.0 11.3 10 6635.0wxwxwxwx1wx--11017.8 996.0 -0.3- 0.012----- 15.5
2019-06-19 05:00:00 19.5 13.4 15.5--- 6830.0wxwxwxwx1wx--11018.0 996.1 -0.4---------
2019-06-19 04:00:00 17.9 13.4 14.9--- 7530.0wx-wxwx2wx--21018.2 996.2 -0.5---------
2019-06-19 03:00:00 12.2 11.1 11.4--- 9328.0wx-wx1wx--11018.7 996.3 -0.8---------
2019-06-19 02:00:00 11.4 10.1 10.5--- 9223.0wx-wx2wx--21019.0 996.5 -0.8---------
2019-06-19 01:00:00 11.9 10.5 10.9--- 9121.0wx-wx1wx--11019.2 996.7 -0.6---------
2019-06-19 00:00:00 12.3 10.5 11.1--- 8924.0wx-wx1wx--11019.6 997.1 -0.3- 0.06------
2019-06-18 23:00:00 13.0 10.7 11.4--- 8628.0wx-wx1wx--11019.7 997.3 0.0---------
2019-06-18 22:00:00 13.6 10.9 11.8--- 8428.0wx-wx1wx---1019.7 997.3 0.3---------
2019-06-18 21:00:00 15.1 11.5 12.7--- 7919.0wx-wx1wx--11019.6 997.4 0.6---------
2019-06-18 20:00:00 17.5 12.0 14.0--- 7040.0wx-wx1wx--11019.4 997.3 0.4---------
2019-06-18 19:00:00 19.9 12.4 15.2--- 6245.0wx-wx1wx--11018.9 997.0 -0.3---------
2019-06-18 18:00:00 22.0 12.0 15.9 24.9 18.2- 5350.0wx-wx2wx--21018.5 996.8 -0.9- 0.012------
2019-06-18 17:00:00 23.3 12.3 16.5--- 5045.0wxwxwxwx2wx---1018.5 996.9 -1.3---------
2019-06-18 16:00:00 24.2 11.5 16.5--- 4535.0wxwxwxwx1wx--11018.9 997.3 -1.4---------
2019-06-18 15:00:00 24.8 12.7 17.4--- 4730.0wxwxwxwx1wx---1019.2 997.7 -1.4---------
2019-06-18 14:00:00 24.2 10.1 15.9--- 4129.0wxwxwxwx2wx--21019.8 998.2 -1.1---------
2019-06-18 13:00:00 24.0 10.3 15.9--- 4230.0wxwxwxwx3wx--31020.3 998.7 -1.0---------
2019-06-18 12:00:00 23.4 11.1 16.0--- 4630.0wxwxwxwx3wx--31020.7 999.1 -0.7- 0.06------
2019-06-18 11:00:00 22.6 10.1 15.2--- 4535.0wxwxwxwx2wx--21021.0 999.3 -0.6---------
2019-06-18 10:00:00 22.4 11.8 15.9--- 5130.0wxwxwxwx2wx--21021.4 999.7 -0.3---------
2019-06-18 09:00:00 21.3 11.9 15.5--- 5530.0wxwxwxwx1wx--11021.6 999.8 -0.1---------
2019-06-18 08:00:00 20.7 13.2 15.9--- 6226.0wxwxwxwx1wx--11021.8 999.9 0.1---------
2019-06-18 07:00:00 19.2 12.9 15.2--- 6730.0wxwxwx2wx---1022.01000.0 0.3---------
2019-06-18 06:00:00 18.3 12.9 14.8 19.2 11.5 9 7135.0wx-wx1wx---1022.0 999.9 0.4-------- 6.3
2019-06-18 05:00:00 16.9 12.6 14.1--- 7627.0wx-2wx--21022.0 999.8 0.5---------
2019-06-18 04:00:00 14.7 12.2 13.0--- 8530.0wx-1wx--11022.0 999.7 0.5---------
2019-06-18 03:00:00 12.3 10.9 11.3--- 9118.0wx-1wx--11022.0 999.5 0.3---------
2019-06-18 02:00:00 11.6 10.0 10.5--- 9015.0wx-0----1021.9 999.3 0.2---------
2019-06-18 01:00:00 12.6 10.8 11.4--- 8922.0wx-2wx---1021.7 999.2 0.1---------
2019-06-18 00:00:00 13.2 11.1 11.8--- 8726.0wx-3wx--31021.6 999.2 0.5- 0.06------
35.0 ms

 

Print Friendly, PDF & Email